Time;durP1;ratioP1;P1;durP2;ratioP2;P2;SDS_P1;SDS_P2;PMS_P1;PMS_P2;Temp;Humidity;BMP_temperature;BMP_pressure;BME280_temperature;BME280_humidity;BME280_pressure;Samples;Min_cycle;Max_cycle;Signal;HPM_P1;HPM_P2
2023/07/30 00:01:21;;;;;;;5.78;2.17;;;18.00;89.90;;;;;;5075916;28;20051;-79
2023/07/30 00:03:46;;;;;;;4.80;2.30;;;17.90;90.00;;;;;;5058335;28;20029;-79
2023/07/30 00:06:12;;;;;;;6.45;2.17;;;17.80;90.00;;;;;;5041767;28;20032;-81
2023/07/30 00:08:38;;;;;;;5.60;2.08;;;17.80;90.10;;;;;;5074854;28;20037;-79
2023/07/30 00:11:03;;;;;;;4.88;2.40;;;17.80;90.00;;;;;;5041692;28;20021;-79
2023/07/30 00:13:29;;;;;;;4.97;2.60;;;17.70;90.10;;;;;;5041559;28;20040;-79
2023/07/30 00:15:54;;;;;;;7.35;2.20;;;17.80;90.00;;;;;;5074745;28;20032;-79
2023/07/30 00:18:20;;;;;;;6.43;2.55;;;17.70;89.90;;;;;;5058176;28;20033;-79
2023/07/30 00:20:46;;;;;;;6.20;2.40;;;17.70;89.80;;;;;;5074861;28;20025;-79
2023/07/30 00:23:11;;;;;;;5.72;2.05;;;17.70;90.00;;;;;;5074578;28;20071;-80
2023/07/30 00:25:37;;;;;;;8.07;2.10;;;17.60;90.00;;;;;;5057904;28;20075;-80
2023/07/30 00:28:03;;;;;;;3.80;1.88;;;17.60;90.00;;;;;;5075506;28;20087;-79
2023/07/30 00:30:28;;;;;;;3.50;1.90;;;17.60;90.00;;;;;;5075232;28;20065;-80
2023/07/30 00:32:54;;;;;;;5.03;1.88;;;17.60;90.10;;;;;;5057840;28;20059;-79
2023/07/30 00:35:19;;;;;;;7.80;2.17;;;17.60;90.00;;;;;;5074482;28;20029;-79
2023/07/30 00:37:45;;;;;;;7.25;2.13;;;17.60;89.90;;;;;;5057685;28;20081;-79
2023/07/30 00:40:11;;;;;;;4.22;2.10;;;17.60;90.00;;;;;;5074334;28;20066;-81
2023/07/30 00:42:37;;;;;;;5.93;2.40;;;17.60;90.00;;;;;;5057818;28;20100;-79
2023/07/30 00:45:03;;;;;;;4.50;2.25;;;17.50;90.00;;;;;;5041026;28;20490;-79
2023/07/30 00:47:29;;;;;;;4.65;2.15;;;17.50;90.10;;;;;;5074144;28;20025;-79
2023/07/30 00:49:55;;;;;;;8.40;2.35;;;17.40;90.20;;;;;;5073927;28;20017;-79
2023/07/30 00:52:22;;;;;;;7.55;2.40;;;17.30;90.20;;;;;;5074002;28;20033;-80
2023/07/30 00:54:49;;;;;;;4.55;2.10;;;17.30;90.30;;;;;;5074004;28;20029;-79
2023/07/30 00:57:16;;;;;;;5.22;2.20;;;17.20;90.40;;;;;;5073960;28;20025;-79
2023/07/30 00:59:43;;;;;;;5.63;2.30;;;17.10;90.50;;;;;;5074013;28;20052;-79
2023/07/30 01:02:09;;;;;;;10.27;2.40;;;17.10;90.60;;;;;;5057335;28;20045;-80
2023/07/30 01:04:37;;;;;;;7.05;2.30;;;17.10;90.60;;;;;;5057089;28;20052;-79
2023/07/30 01:07:03;;;;;;;5.20;2.35;;;17.10;90.60;;;;;;5074726;28;20054;-79
2023/07/30 01:09:29;;;;;;;4.93;2.20;;;17.10;90.70;;;;;;5073612;28;20029;-79
2023/07/30 01:11:55;;;;;;;6.68;2.20;;;17.10;90.70;;;;;;5057163;28;20025;-79
2023/07/30 01:14:22;;;;;;;9.70;2.20;;;17.10;90.80;;;;;;5074786;28;20025;-79
2023/07/30 01:16:48;;;;;;;5.78;2.30;;;17.20;90.80;;;;;;5056908;28;20140;-79
2023/07/30 01:19:14;;;;;;;5.65;2.10;;;17.10;90.70;;;;;;5073649;28;20025;-79
2023/07/30 01:21:40;;;;;;;4.75;2.10;;;17.20;90.70;;;;;;5040340;28;20547;-79
2023/07/30 01:24:05;;;;;;;5.72;2.05;;;17.20;90.70;;;;;;5074485;28;20040;-79
2023/07/30 01:26:52;;;;;;;6.13;1.90;;;17.30;90.70;;;;;;5073547;28;20059;-79
2023/07/30 01:29:39;;;;;;;6.30;2.30;;;17.30;90.70;;;;;;5074482;28;20199;-79
2023/07/30 01:32:08;;;;;;;8.05;2.30;;;17.30;90.60;;;;;;5073117;28;20041;-79
2023/07/30 01:34:39;;;;;;;7.53;2.13;;;17.30;90.60;;;;;;5074113;28;20096;-78
2023/07/30 01:37:11;;;;;;;4.25;2.20;;;17.30;90.50;;;;;;5073123;28;20092;-80
2023/07/30 01:39:39;;;;;;;6.38;2.10;;;17.30;90.50;;;;;;5073149;28;20092;-79
2023/07/30 01:42:05;;;;;;;6.03;2.20;;;17.20;90.60;;;;;;5074053;28;20376;-79
2023/07/30 01:44:30;;;;;;;6.32;2.05;;;17.20;90.70;;;;;;5073009;28;20051;-79
2023/07/30 01:46:56;;;;;;;7.30;1.95;;;17.10;90.70;;;;;;5073024;28;20052;-78
2023/07/30 01:49:22;;;;;;;6.88;2.20;;;17.10;90.70;;;;;;5056190;28;20028;-79
2023/07/30 01:51:48;;;;;;;3.85;1.90;;;17.00;90.80;;;;;;5072877;28;20024;-79
2023/07/30 01:54:14;;;;;;;4.75;2.00;;;17.00;90.90;;;;;;5072897;28;20025;-79
2023/07/30 01:56:39;;;;;;;5.95;2.42;;;17.00;90.90;;;;;;5072904;28;20045;-79
2023/07/30 01:59:05;;;;;;;7.78;2.40;;;17.00;90.80;;;;;;5072769;28;20037;-79
2023/07/30 02:01:31;;;;;;;6.70;2.28;;;16.90;90.80;;;;;;5072825;28;20056;-79
2023/07/30 02:03:56;;;;;;;4.38;2.13;;;16.90;91.00;;;;;;5073689;28;20036;-79
2023/07/30 02:06:22;;;;;;;5.90;2.63;;;16.90;91.10;;;;;;5056213;28;20033;-79
2023/07/30 02:08:48;;;;;;;8.80;2.30;;;16.80;91.10;;;;;;5073539;28;20029;-79
2023/07/30 02:11:13;;;;;;;5.13;2.30;;;16.70;91.20;;;;;;5072630;28;20032;-80
2023/07/30 02:13:39;;;;;;;6.78;2.22;;;16.70;91.40;;;;;;5073635;28;20025;-79
2023/07/30 02:16:04;;;;;;;6.70;2.25;;;16.70;91.50;;;;;;5072982;28;20027;-79
2023/07/30 02:18:30;;;;;;;3.80;1.90;;;16.70;91.50;;;;;;5072422;28;20071;-80
2023/07/30 02:20:56;;;;;;;7.38;3.08;;;16.70;91.60;;;;;;5072461;28;20049;-79
2023/07/30 02:23:21;;;;;;;5.60;2.17;;;16.60;91.70;;;;;;5055744;28;20021;-79
2023/07/30 02:25:47;;;;;;;7.72;2.30;;;16.60;91.80;;;;;;5055801;28;20025;-79
2023/07/30 02:28:12;;;;;;;7.65;2.50;;;16.50;91.90;;;;;;5039310;28;20029;-79
2023/07/30 02:30:38;;;;;;;5.93;2.03;;;16.60;92.00;;;;;;5072131;28;20036;-79
2023/07/30 02:33:04;;;;;;;4.60;2.50;;;16.60;91.90;;;;;;5039336;28;20033;-79
2023/07/30 02:35:29;;;;;;;7.13;2.63;;;16.60;91.90;;;;;;5055705;28;20035;-79
2023/07/30 02:37:55;;;;;;;7.35;2.58;;;16.70;92.00;;;;;;5055553;28;20033;-79
2023/07/30 02:40:20;;;;;;;6.22;2.60;;;16.60;92.00;;;;;;5055770;28;20033;-79
2023/07/30 02:42:46;;;;;;;6.50;2.45;;;16.60;92.10;;;;;;5055579;28;20033;-79
2023/07/30 02:45:12;;;;;;;7.30;2.10;;;16.60;92.00;;;;;;5055456;28;20029;-79
2023/07/30 02:47:37;;;;;;;9.43;2.30;;;16.70;92.00;;;;;;5055478;28;20037;-77
2023/07/30 02:50:06;;;;;;;4.13;2.47;;;16.60;92.10;;;;;;5055470;28;20048;-77
2023/07/30 02:52:32;;;;;;;7.53;2.22;;;16.50;92.80;;;;;;5072173;28;20056;-77
2023/07/30 02:54:57;;;;;;;10.00;3.08;;;16.50;92.60;;;;;;5072039;28;20033;-77
2023/07/30 02:57:23;;;;;;;10.43;2.65;;;16.60;92.50;;;;;;5073029;28;20067;-78
2023/07/30 02:59:49;;;;;;;7.15;2.70;;;16.50;92.60;;;;;;5055305;28;20037;-77
2023/07/30 03:02:14;;;;;;;7.10;2.35;;;16.60;92.60;;;;;;5055318;28;20035;-78
2023/07/30 03:04:40;;;;;;;8.15;2.53;;;16.60;92.60;;;;;;5072114;28;20104;-77
2023/07/30 03:07:06;;;;;;;9.30;3.00;;;16.60;92.70;;;;;;5072080;28;20021;-78
2023/07/30 03:09:32;;;;;;;9.52;3.05;;;16.60;92.70;;;;;;5072899;28;20040;-78
2023/07/30 03:11:58;;;;;;;8.35;3.05;;;16.70;92.70;;;;;;5038962;28;20040;-77
2023/07/30 03:14:24;;;;;;;6.57;2.90;;;16.70;92.80;;;;;;5055206;28;20025;-78
2023/07/30 03:16:50;;;;;;;6.50;2.63;;;16.70;92.80;;;;;;5055204;28;20047;-78
2023/07/30 03:19:15;;;;;;;10.90;3.45;;;16.70;92.90;;;;;;5072776;28;20037;-78
2023/07/30 03:21:41;;;;;;;7.63;3.83;;;16.70;92.90;;;;;;5072794;28;20048;-78
2023/07/30 03:24:07;;;;;;;10.45;3.35;;;16.70;93.10;;;;;;5071787;28;20033;-78
2023/07/30 03:26:33;;;;;;;9.93;3.28;;;16.60;93.20;;;;;;5071802;28;20112;-78
2023/07/30 03:28:59;;;;;;;10.85;3.50;;;16.60;93.30;;;;;;5058174;28;20029;-78
2023/07/30 03:31:25;;;;;;;9.43;3.47;;;16.60;93.30;;;;;;5076231;28;20069;-78
2023/07/30 03:33:51;;;;;;;10.77;4.00;;;16.70;93.30;;;;;;5075549;28;20032;-78
2023/07/30 03:36:17;;;;;;;8.90;3.80;;;16.70;93.30;;;;;;5075547;28;20029;-77
2023/07/30 03:38:43;;;;;;;11.43;4.00;;;16.70;93.40;;;;;;5075404;28;20025;-78
2023/07/30 03:41:09;;;;;;;8.85;4.13;;;16.70;93.50;;;;;;5058647;28;20029;-78
2023/07/30 03:43:35;;;;;;;12.40;4.25;;;16.70;93.70;;;;;;5075378;28;20092;-78
2023/07/30 03:46:01;;;;;;;12.75;4.50;;;16.70;93.70;;;;;;5075362;28;20029;-78
2023/07/30 03:48:27;;;;;;;13.02;4.85;;;16.70;93.80;;;;;;5075153;28;20507;-78
2023/07/30 03:50:56;;;;;;;12.90;4.70;;;16.70;93.80;;;;;;5075363;28;20464;-78
2023/07/30 03:53:22;;;;;;;11.25;4.55;;;16.70;93.90;;;;;;5058646;28;20022;-78
2023/07/30 03:55:48;;;;;;;10.10;4.32;;;16.80;93.90;;;;;;5075026;28;20025;-78
2023/07/30 03:58:14;;;;;;;12.85;4.88;;;16.80;93.90;;;;;;5058419;28;20032;-78
2023/07/30 04:00:40;;;;;;;13.75;4.97;;;16.80;93.80;;;;;;5076006;28;20017;-78
2023/07/30 04:03:06;;;;;;;10.23;4.95;;;16.70;94.00;;;;;;5075157;28;20025;-78
2023/07/30 04:05:32;;;;;;;14.23;5.10;;;16.70;94.10;;;;;;5058347;28;20032;-78
2023/07/30 04:07:57;;;;;;;13.00;4.63;;;16.70;94.50;;;;;;5074884;28;20104;-78
2023/07/30 04:10:23;;;;;;;13.45;5.15;;;16.80;94.20;;;;;;5058076;28;20063;-78
2023/07/30 04:12:49;;;;;;;14.23;4.90;;;16.80;94.10;;;;;;5074781;28;20033;-78
2023/07/30 04:15:16;;;;;;;15.82;4.75;;;16.90;94.10;;;;;;5075803;28;20025;-78
2023/07/30 04:17:42;;;;;;;10.32;4.80;;;16.80;94.20;;;;;;5074718;28;20017;-78
2023/07/30 04:20:09;;;;;;;11.57;5.28;;;16.90;94.10;;;;;;5041397;28;20063;-78
2023/07/30 04:22:35;;;;;;;12.27;4.72;;;16.80;94.20;;;;;;5058031;28;20021;-78
2023/07/30 04:25:01;;;;;;;13.77;4.88;;;16.90;94.30;;;;;;5074767;28;20029;-78
2023/07/30 04:27:26;;;;;;;13.80;5.20;;;16.90;94.30;;;;;;5074529;28;20064;-78
2023/07/30 04:29:52;;;;;;;11.30;4.97;;;16.80;94.30;;;;;;5074459;28;20033;-78
2023/07/30 04:32:18;;;;;;;14.88;5.07;;;16.80;94.40;;;;;;5057589;28;20056;-77
2023/07/30 04:34:43;;;;;;;12.73;5.28;;;16.80;94.90;;;;;;5057687;28;20025;-78
2023/07/30 04:37:09;;;;;;;15.98;5.05;;;16.80;94.60;;;;;;5074432;28;20040;-77
2023/07/30 04:39:35;;;;;;;12.38;5.18;;;16.80;94.50;;;;;;5073844;28;20021;-78
2023/07/30 04:42:01;;;;;;;15.30;5.55;;;16.90;94.60;;;;;;5057600;28;20025;-78
2023/07/30 04:44:26;;;;;;;10.07;4.90;;;16.80;94.70;;;;;;5074143;28;20033;-78
2023/07/30 04:46:52;;;;;;;15.07;5.50;;;16.90;94.60;;;;;;5074154;28;20017;-78
2023/07/30 04:49:18;;;;;;;10.45;5.22;;;16.90;94.70;;;;;;5057362;28;20029;-78
2023/07/30 04:51:43;;;;;;;13.57;5.35;;;16.90;94.70;;;;;;5075016;28;20041;-78
2023/07/30 04:54:09;;;;;;;14.43;4.85;;;16.90;94.60;;;;;;5040891;28;20488;-79
2023/07/30 04:56:35;;;;;;;11.45;5.28;;;16.90;94.60;;;;;;5074912;28;20013;-78
2023/07/30 04:59:01;;;;;;;15.43;5.78;;;17.00;94.60;;;;;;5074021;28;20454;-79
2023/07/30 05:01:27;;;;;;;15.20;4.82;;;17.00;94.60;;;;;;5073988;28;20025;-78
2023/07/30 05:03:53;;;;;;;16.70;4.70;;;17.00;94.60;;;;;;5057146;28;20060;-78
2023/07/30 05:06:18;;;;;;;11.40;4.18;;;16.90;94.60;;;;;;5073802;28;20051;-78
2023/07/30 05:08:44;;;;;;;15.50;4.75;;;16.90;94.80;;;;;;5074636;28;20037;-78
2023/07/30 05:11:10;;;;;;;14.48;4.70;;;17.00;94.70;;;;;;5040576;28;20039;-78
2023/07/30 05:13:35;;;;;;;13.32;4.60;;;16.90;94.60;;;;;;5073664;28;20055;-78
2023/07/30 05:16:01;;;;;;;11.98;5.00;;;17.00;94.60;;;;;;5073669;28;20077;-78
2023/07/30 05:18:27;;;;;;;12.85;4.18;;;17.00;94.60;;;;;;5073528;28;20017;-78
2023/07/30 05:20:53;;;;;;;14.35;4.78;;;17.10;94.70;;;;;;5056894;28;20028;-78
2023/07/30 05:23:19;;;;;;;11.48;4.75;;;17.00;94.70;;;;;;5056871;28;20049;-79
2023/07/30 05:25:45;;;;;;;12.50;5.35;;;17.10;94.90;;;;;;5073401;28;20036;-78
2023/07/30 05:28:11;;;;;;;16.80;5.35;;;17.10;94.70;;;;;;5073358;28;20025;-78
2023/07/30 05:30:37;;;;;;;16.33;4.88;;;17.10;94.80;;;;;;5073136;28;20029;-78
2023/07/30 05:33:02;;;;;;;13.55;4.78;;;17.10;94.60;;;;;;5073128;28;20052;-77
2023/07/30 05:35:28;;;;;;;16.80;5.07;;;17.10;94.60;;;;;;5074082;28;20520;-78
2023/07/30 05:37:54;;;;;;;16.60;5.65;;;17.10;94.60;;;;;;5073210;28;20036;-78
2023/07/30 05:40:21;;;;;;;16.70;5.32;;;17.10;94.70;;;;;;5056654;28;20055;-78
2023/07/30 05:42:47;;;;;;;12.40;5.75;;;17.20;94.80;;;;;;5073164;28;20054;-78
2023/07/30 05:45:12;;;;;;;13.57;6.15;;;17.10;94.90;;;;;;5073119;28;20029;-78
2023/07/30 05:47:38;;;;;;;14.35;5.15;;;17.10;94.80;;;;;;5056393;28;20093;-78
2023/07/30 05:50:04;;;;;;;15.27;5.53;;;17.10;94.90;;;;;;5072227;28;20045;-78
2023/07/30 05:52:30;;;;;;;11.95;5.40;;;17.10;94.90;;;;;;5056262;28;20025;-79
2023/07/30 05:54:55;;;;;;;21.35;5.50;;;17.10;94.90;;;;;;5073823;28;20032;-79
2023/07/30 05:57:21;;;;;;;16.83;5.70;;;17.10;94.80;;;;;;5056114;28;20048;-79
2023/07/30 05:59:47;;;;;;;17.13;5.68;;;17.10;94.80;;;;;;5072702;28;20119;-79
2023/07/30 06:02:12;;;;;;;15.50;6.15;;;17.10;94.90;;;;;;5039545;28;20033;-79
2023/07/30 06:04:38;;;;;;;13.32;5.65;;;17.10;94.90;;;;;;5073660;28;20093;-81
2023/07/30 06:07:04;;;;;;;13.73;5.88;;;17.20;95.00;;;;;;5056066;28;20059;-79
2023/07/30 06:09:30;;;;;;;18.70;6.15;;;17.10;95.10;;;;;;5072471;28;20064;-78
2023/07/30 06:11:57;;;;;;;18.08;5.72;;;17.20;95.10;;;;;;5072517;28;20040;-78
2023/07/30 06:14:23;;;;;;;16.95;5.60;;;17.20;95.00;;;;;;5073491;28;20021;-78
2023/07/30 06:16:49;;;;;;;15.85;6.65;;;17.20;95.00;;;;;;5055946;28;20033;-79
2023/07/30 06:19:15;;;;;;;15.43;5.78;;;17.30;95.00;;;;;;5055843;28;20028;-79
2023/07/30 06:21:40;;;;;;;16.92;5.72;;;17.30;94.90;;;;;;5073413;28;20029;-78
2023/07/30 06:24:06;;;;;;;14.77;6.50;;;17.40;95.00;;;;;;5072417;28;20040;-77
2023/07/30 06:26:32;;;;;;;15.15;6.38;;;17.30;95.00;;;;;;5055786;28;20096;-78
2023/07/30 06:28:58;;;;;;;19.55;5.95;;;17.30;94.90;;;;;;5055714;28;20033;-77
2023/07/30 06:31:23;;;;;;;20.00;6.80;;;17.30;95.10;;;;;;5038735;28;20060;-78
2023/07/30 06:33:49;;;;;;;17.35;6.80;;;17.40;95.10;;;;;;5055670;28;20029;-77
2023/07/30 06:36:15;;;;;;;19.33;7.18;;;17.30;95.20;;;;;;5055668;28;20460;-77
2023/07/30 06:38:40;;;;;;;16.08;6.68;;;17.30;95.10;;;;;;5073170;28;20025;-78
2023/07/30 06:41:06;;;;;;;15.38;7.10;;;17.30;95.30;;;;;;5072229;28;20033;-78
2023/07/30 06:43:32;;;;;;;18.30;6.45;;;17.30;95.20;;;;;;5072124;28;20025;-77
2023/07/30 06:45:57;;;;;;;19.33;6.43;;;17.40;95.30;;;;;;5072201;28;20017;-77
2023/07/30 06:48:23;;;;;;;17.58;6.63;;;17.40;95.20;;;;;;5072980;28;20532;-78
2023/07/30 06:50:49;;;;;;;23.42;8.27;;;17.40;95.10;;;;;;5072129;28;20040;-78
2023/07/30 06:53:14;;;;;;;22.38;7.20;;;17.40;95.00;;;;;;5072178;28;20032;-78
2023/07/30 06:55:40;;;;;;;19.88;7.15;;;17.50;95.10;;;;;;5073166;28;20029;-77
2023/07/30 06:58:06;;;;;;;15.45;7.25;;;17.40;94.80;;;;;;5072970;28;20029;-77
2023/07/30 07:00:31;;;;;;;22.27;7.82;;;17.40;95.00;;;;;;5072212;28;20032;-78
2023/07/30 07:02:57;;;;;;;17.90;7.18;;;17.50;95.10;;;;;;5075314;28;20075;-77
2023/07/30 07:05:23;;;;;;;17.05;7.35;;;17.50;95.20;;;;;;5076101;28;20052;-77
2023/07/30 07:07:48;;;;;;;18.23;7.00;;;17.50;95.10;;;;;;5076954;28;20041;-77
2023/07/30 07:10:14;;;;;;;20.30;7.95;;;17.60;95.00;;;;;;5076011;28;20085;-78
2023/07/30 07:12:40;;;;;;;18.08;6.53;;;17.60;95.00;;;;;;5075926;28;20036;-77
2023/07/30 07:15:06;;;;;;;16.42;6.20;;;17.70;95.10;;;;;;5075806;28;20051;-77
2023/07/30 07:17:32;;;;;;;20.77;6.50;;;17.70;95.00;;;;;;5076001;28;20052;-78
2023/07/30 07:19:58;;;;;;;15.05;6.88;;;17.80;94.70;;;;;;5075811;28;20033;-78
2023/07/30 07:22:24;;;;;;;12.40;5.80;;;17.80;94.80;;;;;;5075707;28;20041;-77
2023/07/30 07:24:52;;;;;;;15.07;6.45;;;17.80;94.80;;;;;;5075817;28;20029;-77
2023/07/30 07:27:18;;;;;;;14.48;5.07;;;17.80;95.20;;;;;;5059277;28;20492;-77
2023/07/30 07:29:44;;;;;;;14.27;5.68;;;17.80;94.10;;;;;;5076524;28;20033;-77
2023/07/30 07:32:09;;;;;;;15.45;5.30;;;17.80;94.50;;;;;;5075359;28;20056;-77
2023/07/30 07:34:35;;;;;;;13.63;4.75;;;17.90;94.40;;;;;;5076381;28;20025;-76
2023/07/30 07:37:02;;;;;;;16.60;5.38;;;17.90;94.30;;;;;;5058718;28;20039;-77
2023/07/30 07:39:27;;;;;;;16.17;5.05;;;18.00;94.70;;;;;;5075509;28;20047;-77
2023/07/30 07:41:53;;;;;;;9.13;3.78;;;18.20;95.50;;;;;;5075328;28;20029;-77
2023/07/30 07:44:19;;;;;;;11.63;4.22;;;18.30;94.70;;;;;;5076400;28;20048;-77
2023/07/30 07:46:44;;;;;;;15.25;4.32;;;18.30;93.80;;;;;;5075122;28;20381;-76
2023/07/30 07:49:10;;;;;;;10.90;3.95;;;18.30;93.70;;;;;;5058257;28;20079;-78
2023/07/30 07:51:36;;;;;;;15.38;4.28;;;18.30;93.90;;;;;;5076046;28;20033;-77
2023/07/30 07:54:01;;;;;;;14.73;5.15;;;18.30;93.60;;;;;;5058512;28;20021;-78
2023/07/30 07:56:27;;;;;;;15.45;3.88;;;18.30;93.90;;;;;;5058563;28;20036;-77
2023/07/30 07:58:53;;;;;;;13.85;4.00;;;18.30;93.40;;;;;;5041760;28;20040;-78
2023/07/30 08:01:18;;;;;;;15.15;3.55;;;18.40;93.80;;;;;;5058385;28;20052;-77
2023/07/30 08:03:44;;;;;;;11.68;3.65;;;18.50;93.60;;;;;;5058235;28;20036;-77
2023/07/30 08:06:10;;;;;;;15.77;4.40;;;18.50;93.00;;;;;;5075916;28;20053;-77
2023/07/30 08:08:35;;;;;;;11.30;3.40;;;18.40;93.20;;;;;;5075784;28;20045;-78
2023/07/30 08:11:08;;;;;;;9.52;3.60;;;18.50;93.10;;;;;;5041691;28;20052;-77
2023/07/30 08:13:33;;;;;;;;;;;18.50;93.10;;;;;;5074296;28;20028;-78
2023/07/30 08:15:59;;;;;;;15.55;3.50;;;18.50;93.50;;;;;;5074695;28;19913;-78
2023/07/30 08:18:25;;;;;;;11.95;3.83;;;18.60;93.70;;;;;;5075634;28;20468;-79
2023/07/30 08:20:51;;;;;;;10.93;3.40;;;18.50;92.40;;;;;;5058220;28;20059;-78
2023/07/30 08:23:16;;;;;;;12.35;3.22;;;18.40;92.50;;;;;;5075704;28;20028;-77
2023/07/30 08:25:42;;;;;;;12.38;3.33;;;18.40;92.70;;;;;;5075570;28;20036;-77
2023/07/30 08:28:08;;;;;;;12.90;3.10;;;18.50;92.50;;;;;;5057908;28;20025;-77
2023/07/30 08:30:33;;;;;;;13.23;3.97;;;18.50;92.70;;;;;;5075362;28;20052;-77
2023/07/30 08:32:59;;;;;;;16.17;3.22;;;18.60;93.20;;;;;;5074192;28;20124;-77
2023/07/30 08:35:26;;;;;;;13.48;3.75;;;18.70;92.40;;;;;;5074308;28;20032;-77
2023/07/30 08:37:52;;;;;;;14.90;3.42;;;18.70;92.30;;;;;;5074280;28;20021;-77
2023/07/30 08:40:20;;;;;;;12.40;4.47;;;18.70;92.30;;;;;;5074202;28;20035;-76
2023/07/30 08:42:46;;;;;;;12.18;3.97;;;18.70;92.20;;;;;;5074232;28;20045;-77
2023/07/30 08:45:11;;;;;;;10.07;3.40;;;18.60;91.50;;;;;;5074187;28;20392;-77
2023/07/30 08:47:41;;;;;;;13.00;3.35;;;18.60;91.80;;;;;;5075114;28;20036;-77
2023/07/30 08:50:06;;;;;;;15.73;3.78;;;18.60;91.60;;;;;;5057473;28;20029;-76
2023/07/30 08:52:34;;;;;;;12.40;3.55;;;18.60;91.90;;;;;;5073857;28;20033;-78
2023/07/30 08:55:01;;;;;;;10.70;3.78;;;18.70;92.30;;;;;;5074904;28;20032;-77
2023/07/30 08:57:29;;;;;;;10.38;3.88;;;18.80;91.80;;;;;;5074935;28;20053;-78
2023/07/30 09:00:08;;;;;;;9.55;3.78;;;18.70;91.10;;;;;;5073948;28;20036;-77
2023/07/30 09:02:41;;;;;;;10.80;4.20;;;18.80;91.30;;;;;;5074841;28;20021;-77
2023/07/30 09:05:07;;;;;;;16.52;3.88;;;18.80;91.20;;;;;;5074789;28;20025;-77
2023/07/30 09:07:33;;;;;;;14.48;3.88;;;18.70;91.40;;;;;;5073720;28;20052;-78
2023/07/30 09:09:59;;;;;;;13.82;3.60;;;18.70;91.10;;;;;;5057028;28;20037;-77
2023/07/30 09:12:35;;;;;;;10.48;3.83;;;18.60;91.30;;;;;;5073692;28;20028;-77
2023/07/30 09:15:03;;;;;;;11.65;3.88;;;18.60;91.10;;;;;;5074560;28;20029;-78
2023/07/30 09:17:29;;;;;;;8.55;3.80;;;18.60;91.20;;;;;;5074556;28;20024;-77
2023/07/30 09:19:54;;;;;;;9.30;3.55;;;18.70;91.00;;;;;;5073404;28;20029;-77
2023/07/30 09:22:27;;;;;;;11.00;3.78;;;18.70;91.10;;;;;;5073605;28;20071;-77
2023/07/30 09:24:54;;;;;;;8.70;3.55;;;18.70;91.20;;;;;;5073601;28;20033;-78
2023/07/30 09:27:26;;;;;;;6.60;3.50;;;18.80;90.80;;;;;;5074317;28;20024;-78
2023/07/30 09:30:02;;;;;;;10.48;3.80;;;18.80;90.80;;;;;;5057371;28;20029;-78
2023/07/30 09:32:33;;;;;;;9.95;3.05;;;18.80;90.20;;;;;;5073125;28;20048;-78
2023/07/30 09:35:07;;;;;;;9.40;3.30;;;18.80;89.80;;;;;;5074130;28;20078;-78
2023/07/30 09:37:38;;;;;;;8.70;3.00;;;19.00;90.00;;;;;;5073151;28;20067;-78
2023/07/30 09:40:08;;;;;;;12.98;3.13;;;18.90;89.30;;;;;;5073026;28;20033;-78
2023/07/30 09:42:39;;;;;;;9.15;3.03;;;19.00;90.30;;;;;;5074068;28;20070;-78
2023/07/30 09:45:07;;;;;;;8.50;2.92;;;19.20;90.20;;;;;;5072958;28;20090;-78
2023/07/30 09:47:34;;;;;;;6.65;2.78;;;19.40;88.80;;;;;;5072943;28;20047;-78
2023/07/30 09:49:59;;;;;;;10.77;3.05;;;19.40;88.00;;;;;;5056461;28;20039;-78
2023/07/30 09:52:26;;;;;;;11.07;3.17;;;19.50;87.70;;;;;;5072767;28;20021;-78
2023/07/30 09:54:52;;;;;;;11.55;3.45;;;19.60;90.10;;;;;;5056129;28;20049;-78
2023/07/30 09:57:18;;;;;;;8.70;3.38;;;19.70;89.60;;;;;;5073727;28;20052;-78
2023/07/30 09:59:44;;;;;;;8.30;2.90;;;19.80;89.70;;;;;;5072706;28;20041;-78
2023/07/30 10:02:11;;;;;;;7.38;3.10;;;19.90;88.70;;;;;;5072590;28;20038;-78
2023/07/30 10:04:42;;;;;;;10.90;3.30;;;19.90;88.50;;;;;;5056133;28;20029;-78
2023/07/30 10:07:14;;;;;;;12.02;3.80;;;19.90;88.10;;;;;;5072751;28;20025;-77
2023/07/30 10:09:44;;;;;;;8.70;2.95;;;19.90;87.10;;;;;;5073505;28;20032;-78
2023/07/30 10:12:17;;;;;;;8.25;2.95;;;19.90;87.40;;;;;;5072541;28;20503;-78
2023/07/30 10:14:44;;;;;;;7.93;2.80;;;19.90;87.20;;;;;;5072354;28;20021;-78
2023/07/30 10:17:11;;;;;;;13.32;3.20;;;19.90;87.60;;;;;;5073427;28;20045;-78
2023/07/30 10:19:37;;;;;;;6.80;2.63;;;19.70;86.70;;;;;;5072432;28;20029;-78
2023/07/30 10:22:18;;;;;;;14.52;3.58;;;19.60;87.40;;;;;;5072466;28;20033;-78
2023/07/30 10:24:57;;;;;;;13.68;3.63;;;19.60;89.80;;;;;;5072197;28;20384;-77
2023/07/30 10:27:28;;;;;;;11.95;3.72;;;19.50;90.40;;;;;;5055750;28;20032;-77
2023/07/30 10:30:16;;;;;;;11.60;4.32;;;19.50;90.70;;;;;;5073281;28;20033;-78
2023/07/30 10:32:43;;;;;;;8.27;2.65;;;19.30;91.20;;;;;;5072268;28;20071;-78
2023/07/30 10:35:09;;;;;;;4.40;1.70;;;19.10;91.30;;;;;;5072218;28;20085;-78
2023/07/30 10:37:34;;;;;;;3.05;1.50;;;18.90;91.00;;;;;;5071776;28;20025;-77
2023/07/30 10:40:00;;;;;;;5.65;1.63;;;18.70;91.00;;;;;;5073200;28;20037;-78
2023/07/30 10:42:35;;;;;;;2.47;1.27;;;18.50;91.20;;;;;;5055490;28;20032;-78
2023/07/30 10:45:01;;;;;;;5.63;1.98;;;18.40;91.50;;;;;;5055667;28;20033;-78
2023/07/30 10:47:34;;;;;;;5.20;1.90;;;18.40;91.90;;;;;;5072211;28;20025;-77
2023/07/30 10:50:02;;;;;;;3.78;2.10;;;18.30;92.00;;;;;;5073169;28;20036;-79
2023/07/30 10:52:28;;;;;;;3.80;1.52;;;18.30;92.30;;;;;;5055682;28;20098;-78
2023/07/30 10:55:01;;;;;;;3.08;1.73;;;18.20;91.50;;;;;;5055457;28;20029;-79
2023/07/30 10:57:32;;;;;;;2.72;1.65;;;18.10;91.40;;;;;;5072976;28;20026;-79
2023/07/30 10:59:59;;;;;;;3.83;1.73;;;18.10;91.50;;;;;;5073094;28;20044;-79
2023/07/30 11:02:25;;;;;;;6.10;2.00;;;18.10;91.70;;;;;;5073005;28;20029;-79
2023/07/30 11:04:51;;;;;;;6.43;2.38;;;18.10;92.00;;;;;;5055572;28;20116;-78
2023/07/30 11:07:19;;;;;;;5.68;1.95;;;18.10;92.30;;;;;;5055690;28;20049;-79
2023/07/30 11:09:44;;;;;;;5.80;2.40;;;18.30;92.80;;;;;;5073064;28;20017;-79
2023/07/30 11:12:10;;;;;;;6.80;2.50;;;18.40;93.20;;;;;;5072086;28;20033;-79
2023/07/30 11:14:36;;;;;;;4.40;2.85;;;18.60;93.40;;;;;;5072161;28;20017;-79
2023/07/30 11:17:02;;;;;;;7.72;3.53;;;18.80;93.80;;;;;;5039153;28;20033;-79
2023/07/30 11:19:29;;;;;;;4.90;3.00;;;18.90;93.10;;;;;;5055414;28;20021;-79
2023/07/30 11:21:56;;;;;;;9.07;3.70;;;18.90;93.70;;;;;;5072944;28;20032;-78
2023/07/30 11:24:33;;;;;;;8.85;3.83;;;19.00;93.30;;;;;;5071943;28;20092;-79
2023/07/30 11:26:59;;;;;;;10.00;3.38;;;19.10;93.10;;;;;;5072948;28;20080;-79
2023/07/30 11:29:25;;;;;;;6.82;3.50;;;19.20;93.10;;;;;;5055361;28;20029;-79
2023/07/30 11:31:51;;;;;;;6.22;3.38;;;19.30;93.60;;;;;;5071598;28;20108;-78
2023/07/30 11:34:18;;;;;;;10.02;3.63;;;19.50;93.50;;;;;;5038602;28;20081;-78
2023/07/30 11:36:44;;;;;;;6.65;2.70;;;19.60;92.10;;;;;;5071898;28;20021;-79
2023/07/30 11:39:10;;;;;;;6.60;2.60;;;19.80;92.20;;;;;;5055015;28;20484;-77
2023/07/30 11:41:37;;;;;;;9.35;2.83;;;19.90;91.30;;;;;;5072764;28;20033;-78
2023/07/30 11:44:04;;;;;;;5.15;2.00;;;19.90;91.00;;;;;;5072619;28;20049;-79
2023/07/30 11:46:30;;;;;;;6.18;2.25;;;20.00;90.30;;;;;;5071638;28;20021;-79
2023/07/30 11:49:17;;;;;;;4.00;1.85;;;20.20;91.00;;;;;;5072685;28;20029;-78
2023/07/30 11:51:43;;;;;;;5.82;1.80;;;20.40;90.50;;;;;;5075366;28;20052;-79
2023/07/30 11:54:19;;;;;;;3.60;1.80;;;20.60;90.90;;;;;;5058524;28;20032;-78
2023/07/30 11:56:45;;;;;;;5.60;1.95;;;20.80;89.40;;;;;;5075208;28;20017;-79
2023/07/30 11:59:10;;;;;;;7.88;2.80;;;20.90;88.50;;;;;;5075204;28;20091;-79
2023/07/30 12:01:36;;;;;;;6.50;2.00;;;20.90;89.10;;;;;;5041956;28;20029;-80
2023/07/30 12:04:06;;;;;;;6.38;1.88;;;20.90;86.00;;;;;;5076049;28;20028;-80
2023/07/30 12:06:58;;;;;;;5.68;1.95;;;20.80;85.40;;;;;;5076043;28;20049;-79
2023/07/30 12:09:27;;;;;;;7.60;1.50;;;20.70;83.70;;;;;;5057079;28;20044;-77
2023/07/30 12:11:58;;;;;;;7.30;1.88;;;20.50;82.40;;;;;;5075842;28;20051;-79
2023/07/30 12:14:32;;;;;;;5.45;1.70;;;20.50;84.40;;;;;;5075793;28;20025;-79
2023/07/30 12:17:01;;;;;;;4.80;1.50;;;20.70;85.20;;;;;;5074904;28;20024;-78
2023/07/30 12:19:27;;;;;;;5.10;1.55;;;20.80;84.90;;;;;;5074698;28;20025;-78
2023/07/30 12:21:53;;;;;;;4.50;1.15;;;20.90;83.70;;;;;;5074627;28;20123;-78
2023/07/30 12:24:18;;;;;;;3.47;1.08;;;20.80;79.40;;;;;;5074710;28;20021;-78
2023/07/30 12:26:44;;;;;;;4.05;1.02;;;20.80;77.70;;;;;;5057944;28;20083;-79
2023/07/30 12:29:09;;;;;;;4.40;1.10;;;20.90;78.20;;;;;;5057790;28;20036;-78
2023/07/30 12:31:35;;;;;;;3.28;1.00;;;21.10;79.90;;;;;;5057609;28;20028;-78
2023/07/30 12:34:01;;;;;;;2.58;0.80;;;21.20;78.70;;;;;;5057761;28;20057;-79
2023/07/30 12:36:26;;;;;;;2.83;0.80;;;21.30;77.70;;;;;;5074593;28;20108;-77
2023/07/30 12:38:53;;;;;;;2.88;0.90;;;21.20;75.80;;;;;;5074406;28;20047;-79
2023/07/30 12:41:25;;;;;;;3.80;1.02;;;21.20;75.50;;;;;;5074582;28;20021;-79